Date,TemperatureHighF,TemperatureAvgF,TemperatureLowF,DewpointHighF,DewpointAvgF,DewpointLowF,HumidityHigh,HumidityAvg,HumidityLow,PressureMaxIn,PressureMinIn,WindSpeedMaxMPH,WindSpeedAvgMPH,GustSpeedMaxMPH,PrecipitationSumIn
2013-5-1,87.6,71.6,57.9,67.3,56.0,47.0,77,59,51,30.09,29.94,11,4,11,0.00
2013-5-2,80.2,63.0,46.8,66.7,52.6,41.2,86,70,52,30.12,30.03,16,6,16,0.75
2013-5-3,46.4,42.8,41.0,41.2,38.3,36.6,88,84,80,30.09,29.80,13,6,13,1.93
2013-5-4,55.9,45.7,39.6,40.5,37.3,33.5,90,73,56,29.97,29.80,8,2,8,0.04
2013-5-5,61.0,52.6,44.4,53.0,47.3,38.6,94,83,65,29.94,29.85,14,5,14,0.16
2013-5-6,69.1,59.6,51.6,52.7,49.4,46.1,89,70,56,29.94,29.85,15,5,15,0.00
2013-5-7,84.9,64.7,53.4,64.8,53.0,48.4,88,67,51,30.00,29.94,15,1,15,0.00
2013-5-8,89.8,69.3,52.2,68.7,55.7,47.2,86,64,50,30.03,29.94,10,3,10,0.00
2013-5-9,76.1,67.8,62.8,60.2,54.0,49.8,78,62,53,29.97,29.83,14,5,14,0.04
2013-5-10,72.9,62.8,54.7,59.9,52.4,44.1,93,70,54,30.00,29.83,17,7,17,0.12
2013-5-11,76.3,60.3,49.5,57.9,46.7,35.3,81,62,53,30.12,29.97,24,8,24,0.00
2013-5-12,68.4,53.2,38.8,52.0,38.2,26.5,65,57,53,30.18,30.09,16,6,16,0.00
2013-5-13,79.3,58.6,38.7,60.7,43.8,28.4,76,58,53,30.18,30.00,10,4,10,0.00
2013-5-14,96.3,75.1,53.4,74.0,57.0,39.8,70,54,49,30.03,29.83,14,6,14,0.00
2013-5-15,94.3,78.3,64.9,72.2,59.6,47.6,58,53,49,29.94,29.85,14,7,14,0.00
2013-5-16,83.5,70.5,62.6,63.4,57.1,49.9,78,63,51,29.97,29.88,16,4,16,0.08
2013-5-17,80.8,68.9,61.7,62.0,56.8,53.4,79,66,52,29.97,29.94,9,3,9,0.00
2013-5-18,86.5,72.3,61.2,66.3,59.7,54.9,92,67,51,30.00,29.91,9,3,9,0.00
2013-5-19,92.5,78.0,67.6,70.5,62.6,57.2,78,60,49,29.94,29.80,18,8,18,0.00
2013-5-20,80.1,71.9,62.1,63.7,59.3,53.6,88,66,52,29.94,29.74,24,8,24,0.87
2013-5-21,82.8,69.1,61.7,63.3,58.1,53.1,92,70,52,29.85,29.71,14,7,14,0.16
2013-5-22,81.5,68.6,60.4,62.2,55.2,46.1,86,64,52,29.88,29.68,14,5,14,0.00
2013-5-23,66.6,61.0,53.8,54.1,48.1,44.2,78,63,53,30.21,29.85,17,7,17,0.00
2013-5-24,77.2,58.8,43.7,58.7,45.4,33.3,83,62,53,30.36,30.18,10,2,10,0.00
2013-5-25,70.3,60.2,47.3,54.9,46.9,36.8,79,62,53,30.33,30.09,12,3,12,0.04
2013-5-26,85.8,69.6,55.0,65.6,53.7,42.2,71,58,51,30.18,30.03,13,6,13,0.00
2013-5-27,84.2,71.4,64.6,64.1,57.5,50.7,90,63,51,30.03,29.80,17,8,17,0.71
2013-5-28,84.2,73.1,66.4,64.1,59.2,53.1,82,63,51,29.91,29.83,19,8,19,0.12
2013-5-29,87.4,76.2,66.0,67.1,59.5,52.0,77,57,51,29.97,29.83,17,8,17,0.00
2013-5-30,81.1,73.0,64.4,64.7,60.9,54.1,86,66,52,29.94,29.83,21,9,21,0.39
2013-5-31,79.5,70.5,63.0,66.2,61.3,54.4,96,74,53,29.94,29.77,25,9,26,3.39